Time;durP1;ratioP1;P1;durP2;ratioP2;P2;SDS_P1;SDS_P2;PMS_P1;PMS_P2;Temp;Humidity;BMP_temperature;BMP_pressure;BME280_temperature;BME280_humidity;BME280_pressure;Samples;Min_cycle;Max_cycle;Signal;HPM_P1;HPM_P2
2024/04/18 00:02:28;;;;;;;6.60;3.70;;;;;;;9.17;100.00;98910.79;108881;1250;109992;-75
2024/04/18 00:05:19;;;;;;;8.90;4.30;;;;;;;9.14;100.00;98915.98;108960;1251;95386;-75
2024/04/18 00:08:10;;;;;;;10.10;4.70;;;;;;;9.13;100.00;98917.53;104908;1249;106851;-76
2024/04/18 00:10:57;;;;;;;8.90;4.50;;;;;;;9.11;100.00;98913.31;109043;1249;94879;-75
2024/04/18 00:14:03;;;;;;;7.90;4.20;;;;;;;9.09;100.00;98915.89;108263;1256;110145;-74
2024/04/18 00:17:00;;;;;;;9.20;4.30;;;;;;;9.06;100.00;98912.02;108810;1253;99218;-75
2024/04/18 00:19:34;;;;;;;7.30;4.20;;;;;;;9.08;100.00;98912.20;108758;1253;106331;-75
2024/04/18 00:22:24;;;;;;;8.70;4.50;;;;;;;9.10;100.00;98916.26;108736;1252;95566;-74
2024/04/18 00:25:07;;;;;;;7.10;4.20;;;;;;;9.14;100.00;98920.00;108773;1251;95474;-74
2024/04/18 00:27:57;;;;;;;8.00;4.30;;;;;;;9.13;100.00;98913.88;109011;1249;109975;-74
2024/04/18 00:31:03;;;;;;;7.00;4.30;;;;;;;9.12;100.00;98906.88;108975;1250;94940;-74
2024/04/18 00:33:54;;;;;;;8.80;4.90;;;;;;;9.11;100.00;98899.70;108949;1250;105374;-75
2024/04/18 00:36:45;;;;;;;5.90;3.80;;;;;;;9.11;100.00;98885.05;108755;1254;94987;-74
2024/04/18 00:39:48;;;;;;;6.40;3.90;;;;;;;9.12;100.00;98876.34;108594;1250;94921;-75
2024/04/18 00:42:39;;;;;;;7.10;4.30;;;;;;;9.10;100.00;98875.27;108936;1250;111353;-74
2024/04/18 00:45:22;;;;;;;6.90;4.00;;;;;;;9.08;100.00;98880.47;108861;1251;94940;-75
2024/04/18 00:48:13;;;;;;;7.00;4.20;;;;;;;9.06;100.00;98874.16;108850;1249;111697;-76
2024/04/18 00:51:02;;;;;;;7.60;4.60;;;;;;;9.04;100.00;98872.54;108884;1249;94992;-74
2024/04/18 00:53:53;;;;;;;6.90;4.10;;;;;;;9.04;100.00;98868.20;108990;1250;94954;-75
2024/04/18 00:56:50;;;;;;;8.40;4.80;;;;;;;9.02;100.00;98863.10;108838;1250;109912;-74
2024/04/18 00:59:51;;;;;;;6.30;4.20;;;;;;;9.01;100.00;98868.48;108755;1250;95510;-75
2024/04/18 01:02:43;;;;;;;7.90;4.80;;;;;;;8.99;100.00;98864.30;108845;1250;105391;-75
2024/04/18 01:05:33;;;;;;;7.50;4.80;;;;;;;9.01;100.00;98878.27;108843;1254;94984;-75
2024/04/18 01:08:24;;;;;;;10.60;4.80;;;;;;;9.03;100.00;98872.19;108980;1250;94979;-74
2024/04/18 01:11:21;;;;;;;10.30;5.50;;;;;;;9.03;100.00;98858.58;108809;1253;109996;-75
2024/04/18 01:14:12;;;;;;;7.70;4.90;;;;;;;8.99;100.00;98860.45;108985;1249;95491;-74
2024/04/18 01:17:02;;;;;;;10.20;5.70;;;;;;;8.98;100.00;98871.59;108830;1250;106402;-75
2024/04/18 01:19:36;;;;;;;9.00;5.60;;;;;;;8.99;100.00;98870.73;108830;1253;94883;-75
2024/04/18 01:22:28;;;;;;;8.70;5.20;;;;;;;8.98;100.00;98870.37;108967;1250;95140;-74
2024/04/18 01:25:19;;;;;;;9.10;5.20;;;;;;;8.97;100.00;98866.35;108801;1250;110001;-74
2024/04/18 01:27:52;;;;;;;8.90;5.40;;;;;;;8.97;100.00;98853.44;108981;1250;94963;-74
2024/04/18 01:30:43;;;;;;;7.50;5.20;;;;;;;8.97;100.00;98853.61;109014;1250;107679;-74
2024/04/18 01:33:35;;;;;;;9.10;5.70;;;;;;;8.97;100.00;98860.41;108993;1251;94953;-75
2024/04/18 01:36:25;;;;;;;11.30;6.20;;;;;;;8.94;100.00;98874.85;109025;1250;95627;-75
2024/04/18 01:39:16;;;;;;;10.10;6.00;;;;;;;8.92;100.00;98884.58;108843;1250;116383;-75
2024/04/18 01:42:07;;;;;;;10.80;6.70;;;;;;;8.88;100.00;98888.87;108811;1250;95053;-75
2024/04/18 01:44:47;;;;;;;12.10;6.20;;;;;;;8.87;100.00;98877.70;108907;1250;105254;-75
2024/04/18 01:47:37;;;;;;;9.70;6.40;;;;;;;8.86;100.00;98876.80;108900;1250;96087;-75
2024/04/18 01:50:12;;;;;;;11.90;6.40;;;;;;;8.87;100.00;98864.80;109052;1249;94892;-75
2024/04/18 01:53:28;;;;;;;;;;;;;;;8.87;100.00;98879.09;108788;1251;109939;-74
2024/04/18 01:56:00;;;;;;;11.00;6.20;;;;;;;8.82;100.00;98873.79;109013;1251;95572;-75
2024/04/18 01:59:09;;;;;;;10.70;6.20;;;;;;;8.77;100.00;98866.55;108832;1250;107703;-75
2024/04/18 02:01:45;;;;;;;10.60;6.40;;;;;;;8.76;100.00;98869.30;108808;1253;95537;-75
2024/04/18 02:04:36;;;;;;;11.90;6.30;;;;;;;8.71;100.00;98864.89;108758;1253;94925;-75
2024/04/18 02:07:51;;;;;;;9.80;5.70;;;;;;;8.67;100.00;98865.50;108147;1256;109944;-75
2024/04/18 02:10:34;;;;;;;;;;;;;;;8.68;100.00;98859.06;109054;1250;94905;-74
2024/04/18 02:13:24;;;;;;;9.70;5.60;;;;;;;8.64;100.00;98853.08;108948;1251;106521;-74
2024/04/18 02:15:58;;;;;;;10.30;6.30;;;;;;;8.64;100.00;98860.40;108941;1249;95695;-74
2024/04/18 02:18:49;;;;;;;11.10;6.30;;;;;;;8.62;100.00;98861.25;108907;1250;95909;-75
2024/04/18 02:21:40;;;;;;;10.30;6.10;;;;;;;8.61;100.00;98856.16;108565;1255;110126;-75
2024/04/18 02:24:31;;;;;;;9.10;5.60;;;;;;;8.64;100.00;98857.61;108855;1250;95259;-75
2024/04/18 02:27:22;;;;;;;9.60;6.10;;;;;;;8.63;100.00;98845.39;108776;1252;106360;-75
2024/04/18 02:29:58;;;;;;;10.20;6.10;;;;;;;8.61;100.00;98839.08;108837;1250;94983;-75
2024/04/18 02:33:01;;;;;;;9.20;5.50;;;;;;;8.58;100.00;98834.16;108565;1251;95462;-76
2024/04/18 02:35:52;;;;;;;9.30;5.60;;;;;;;8.58;100.00;98839.04;108958;1251;109751;-75
2024/04/18 02:38:41;;;;;;;8.80;5.40;;;;;;;8.58;100.00;98837.11;108954;1250;95170;-75
2024/04/18 02:41:32;;;;;;;8.30;5.30;;;;;;;8.58;100.00;98837.27;108798;1253;106301;-74
2024/04/18 02:44:23;;;;;;;9.50;5.70;;;;;;;8.57;100.00;98834.30;108476;1252;95338;-74
2024/04/18 02:46:57;;;;;;;11.00;6.10;;;;;;;8.57;100.00;98833.63;108790;1250;96387;-74
2024/04/18 02:50:06;;;;;;;11.80;5.40;;;;;;;8.59;100.00;98839.91;108540;1253;109948;-74
2024/04/18 02:52:57;;;;;;;8.70;5.80;;;;;;;8.60;100.00;98836.61;108753;1253;95068;-75
2024/04/18 02:55:48;;;;;;;9.20;5.80;;;;;;;8.59;100.00;98830.35;108670;1251;106418;-74
2024/04/18 02:58:39;;;;;;;10.10;6.00;;;;;;;8.57;100.00;98828.91;108719;1252;96118;-75
2024/04/18 03:01:42;;;;;;;9.40;5.20;;;;;;;8.56;100.00;98840.73;108757;1250;94942;-75
2024/04/18 03:04:33;;;;;;;10.80;6.30;;;;;;;8.54;100.00;98855.70;109014;1251;110013;-74
2024/04/18 03:07:24;;;;;;;8.00;5.60;;;;;;;8.54;100.00;98864.21;109001;1251;95087;-75
2024/04/18 03:10:04;;;;;;;9.80;6.10;;;;;;;8.54;100.00;98862.33;108956;1250;106326;-77
2024/04/18 03:12:56;;;;;;;10.10;6.00;;;;;;;8.55;100.00;98858.14;108801;1250;95492;-75
2024/04/18 03:15:47;;;;;;;9.60;5.80;;;;;;;8.56;100.00;98855.71;108854;1250;95594;-75
2024/04/18 03:18:38;;;;;;;11.60;5.90;;;;;;;8.55;100.00;98861.65;108805;1250;109973;-75
2024/04/18 03:21:29;;;;;;;7.90;5.30;;;;;;;8.55;100.00;98867.57;108873;1251;96038;-75
2024/04/18 03:24:22;;;;;;;11.10;6.00;;;;;;;8.54;100.00;98866.68;108990;1250;106384;-74
2024/04/18 03:27:13;;;;;;;10.00;5.90;;;;;;;8.55;100.00;98870.17;108986;1250;95100;-75
2024/04/18 03:29:54;;;;;;;10.10;6.20;;;;;;;8.55;100.00;98878.55;109071;1250;94954;-75
2024/04/18 03:32:47;;;;;;;9.50;5.80;;;;;;;8.57;100.00;98889.55;108876;1250;115890;-74
2024/04/18 03:35:55;;;;;;;9.90;5.70;;;;;;;8.59;100.00;98894.13;108668;1250;96147;-75
2024/04/18 03:38:32;;;;;;;8.50;5.90;;;;;;;8.62;100.00;98889.48;108837;1250;106098;-74
2024/04/18 03:41:06;;;;;;;7.60;5.50;;;;;;;8.61;100.00;98888.77;108871;1251;95887;-74
2024/04/18 03:43:58;;;;;;;8.70;5.80;;;;;;;8.61;100.00;98889.11;108957;1251;95993;-74
2024/04/18 03:46:49;;;;;;;6.50;5.20;;;;;;;8.61;100.00;98881.09;108975;1250;109939;-74
2024/04/18 03:49:40;;;;;;;7.50;5.10;;;;;;;8.59;100.00;98872.17;108964;1250;94970;-74
2024/04/18 03:52:31;;;;;;;8.10;5.60;;;;;;;8.57;100.00;98859.92;108743;1251;106376;-74
2024/04/18 03:55:20;;;;;;;10.20;5.70;;;;;;;8.53;100.00;98843.30;108799;1251;94941;-76
2024/04/18 03:58:04;;;;;;;8.00;5.60;;;;;;;8.54;100.00;98828.69;108836;1250;95131;-75
2024/04/18 04:01:13;;;;;;;9.90;5.40;;;;;;;8.54;100.00;98820.33;108654;1254;110065;-74
2024/04/18 04:04:04;;;;;;;7.80;5.10;;;;;;;8.55;100.00;98804.48;108945;1250;95265;-74
2024/04/18 04:06:55;;;;;;;8.50;5.40;;;;;;;8.55;100.00;98786.69;108950;1251;106327;-74
2024/04/18 04:09:46;;;;;;;7.10;5.20;;;;;;;8.54;100.00;98779.02;108935;1251;94946;-75
2024/04/18 04:12:19;;;;;;;7.80;5.40;;;;;;;8.56;100.00;98778.17;108845;1253;95704;-75
2024/04/18 04:15:10;;;;;;;7.00;5.10;;;;;;;8.59;100.00;98805.75;108629;1253;110168;-76
2024/04/18 04:18:01;;;;;;;6.70;4.90;;;;;;;8.60;100.00;98816.94;108771;1252;94918;-75
2024/04/18 04:21:07;;;;;;;8.60;5.30;;;;;;;8.57;100.00;98828.75;108736;1253;106443;-74
2024/04/18 04:23:41;;;;;;;5.20;4.40;;;;;;;8.58;100.00;98839.73;109065;1250;95802;-75
2024/04/18 04:26:33;;;;;;;7.10;4.90;;;;;;;8.58;100.00;98847.59;109013;1251;95371;-74
2024/04/18 04:29:15;;;;;;;8.50;4.90;;;;;;;8.59;100.00;98861.36;108967;1250;111371;-75
2024/04/18 04:31:49;;;;;;;5.90;4.60;;;;;;;8.60;100.00;98867.30;108876;1251;95117;-75
2024/04/18 04:34:22;;;;;;;7.10;4.50;;;;;;;8.57;100.00;98870.23;108696;1251;106409;-75
2024/04/18 04:37:02;;;;;;;5.80;3.80;;;;;;;8.54;100.00;98863.36;108754;1250;94993;-74
2024/04/18 04:39:53;;;;;;;5.60;4.20;;;;;;;8.51;100.00;98861.73;108753;1250;95468;-75
2024/04/18 04:42:31;;;;;;;6.70;4.40;;;;;;;8.50;100.00;98862.94;108948;1250;110408;-74
2024/04/18 04:45:05;;;;;;;6.50;4.70;;;;;;;8.49;100.00;98862.22;109166;1250;94820;-74
2024/04/18 04:47:56;;;;;;;6.80;4.40;;;;;;;8.48;100.00;98857.48;109146;1251;105383;-74
2024/04/18 04:51:01;;;;;;;8.10;5.10;;;;;;;8.46;100.00;98796.99;109129;1251;94979;-76
2024/04/18 04:53:41;;;;;;;9.90;5.80;;;;;;;8.49;100.00;98737.80;108968;1252;95058;-74
2024/04/18 04:56:32;;;;;;;9.10;5.40;;;;;;;8.55;100.00;98735.63;108802;1253;109803;-74
2024/04/18 04:59:23;;;;;;;8.30;5.40;;;;;;;8.59;100.00;98768.64;108710;1254;95033;-76
2024/04/18 05:02:04;;;;;;;7.50;5.10;;;;;;;8.66;100.00;98794.35;108665;1250;106400;-75
2024/04/18 05:05:14;;;;;;;6.30;4.60;;;;;;;8.67;100.00;98815.83;108585;1253;95084;-75
2024/04/18 05:08:06;;;;;;;7.00;4.60;;;;;;;8.65;100.00;98812.14;108855;1251;95579;-74
2024/04/18 05:11:04;;;;;;;8.30;5.00;;;;;;;8.68;100.00;98812.70;108957;1250;110005;-74
2024/04/18 05:13:37;;;;;;;7.90;5.50;;;;;;;8.70;100.00;98816.73;108736;1251;95062;-74
2024/04/18 05:16:40;;;;;;;8.60;5.40;;;;;;;8.72;100.00;98821.13;108737;1250;106487;-74
2024/04/18 05:20:00;;;;;;;8.20;5.50;;;;;;;8.70;100.00;98831.73;108585;1251;95939;-74
2024/04/18 05:22:42;;;;;;;8.80;5.70;;;;;;;8.71;100.00;98836.80;108638;1254;95471;-74
2024/04/18 05:25:24;;;;;;;9.00;5.80;;;;;;;8.72;100.00;98841.19;108681;1253;110160;-74
2024/04/18 05:28:20;;;;;;;8.70;5.60;;;;;;;8.70;100.00;98835.74;108696;1251;95298;-74
2024/04/18 05:31:03;;;;;;;8.20;5.50;;;;;;;8.64;100.00;98839.98;108684;1251;106071;-74
2024/04/18 05:33:36;;;;;;;8.80;6.00;;;;;;;8.59;100.00;98844.98;108667;1256;95815;-74
2024/04/18 05:36:30;;;;;;;9.80;6.20;;;;;;;8.56;100.00;98853.30;108980;1253;95773;-74
2024/04/18 05:39:21;;;;;;;9.70;6.10;;;;;;;8.59;100.00;98857.35;109013;1251;110206;-73
2024/04/18 05:42:12;;;;;;;11.10;6.80;;;;;;;8.64;100.00;98853.77;108912;1251;95452;-74
2024/04/18 05:45:09;;;;;;;13.00;7.20;;;;;;;8.64;100.00;98850.47;108950;1251;106210;-73
2024/04/18 05:48:01;;;;;;;11.20;6.70;;;;;;;8.61;100.00;98848.31;108917;1257;96753;-76
2024/04/18 05:50:44;;;;;;;10.50;6.70;;;;;;;8.55;100.00;98846.30;108862;1253;94927;-74
2024/04/18 05:53:47;;;;;;;10.30;6.60;;;;;;;8.49;100.00;98851.77;108947;1255;110058;-75
2024/04/18 05:56:33;;;;;;;10.40;6.40;;;;;;;8.46;100.00;98859.91;109029;1251;94935;-80
2024/04/18 05:59:18;;;;;;;12.60;7.00;;;;;;;8.46;100.00;98863.57;109036;1251;107807;-77
2024/04/18 06:02:13;;;;;;;11.40;7.00;;;;;;;8.49;100.00;98862.59;108961;1251;94822;-75
2024/04/18 06:05:07;;;;;;;;;;;;;;;8.54;100.00;98863.72;109056;1254;95011;-75
2024/04/18 06:08:16;;;;;;;9.40;6.30;;;;;;;8.58;100.00;98852.63;108705;1254;110058;-75
2024/04/18 06:11:07;;;;;;;11.70;6.30;;;;;;;8.58;100.00;98839.55;108926;1254;94945;-73
2024/04/18 06:13:58;;;;;;;10.50;6.80;;;;;;;8.55;100.00;98833.40;108874;1254;106591;-73
2024/04/18 06:16:32;;;;;;;10.30;6.60;;;;;;;8.56;100.00;98831.48;108963;1251;94851;-74
2024/04/18 06:19:06;;;;;;;10.90;6.50;;;;;;;8.56;100.00;98826.63;109040;1251;95446;-74
2024/04/18 06:21:42;;;;;;;11.90;7.10;;;;;;;8.57;100.00;98824.38;109016;1251;109870;-74
2024/04/18 06:24:19;;;;;;;12.90;7.20;;;;;;;8.60;100.00;98817.12;108870;1251;94930;-73
2024/04/18 06:26:55;;;;;;;11.10;7.30;;;;;;;8.62;100.00;98803.02;108899;1253;106181;-74
2024/04/18 06:29:47;;;;;;;14.40;7.40;;;;;;;8.68;100.00;98792.13;108841;1254;95506;-75
2024/04/18 06:32:28;;;;;;;13.40;7.30;;;;;;;8.78;100.00;98789.50;109012;1251;94866;-75
2024/04/18 06:39:38;;;;;;;15.40;8.10;;;;;;;8.95;100.00;98772.13;108686;1250;99564;-75
2024/04/18 06:42:20;;;;;;;16.80;9.10;;;;;;;9.06;100.00;98770.73;108757;1253;106250;-75
2024/04/18 06:44:52;;;;;;;;;;;;;;;9.13;100.00;98769.77;108561;1255;96474;-74
2024/04/18 06:47:33;;;;;;;12.50;7.50;;;;;;;9.20;100.00;98782.77;108837;1251;94893;-73
2024/04/18 06:50:21;;;;;;;12.50;7.40;;;;;;;9.24;100.00;98790.86;108882;1254;111065;-73
2024/04/18 06:53:12;;;;;;;12.40;6.90;;;;;;;9.20;100.00;98792.73;108904;1253;94902;-75
2024/04/18 06:55:47;;;;;;;10.80;7.10;;;;;;;9.14;100.00;98798.05;108966;1253;106394;-74
2024/04/18 06:58:38;;;;;;;11.60;7.00;;;;;;;9.12;100.00;98801.52;108911;1253;95386;-75
2024/04/18 07:01:29;;;;;;;11.10;7.60;;;;;;;9.14;100.00;98812.18;108979;1251;94916;-75
2024/04/18 07:04:13;;;;;;;11.60;6.60;;;;;;;9.12;100.00;98815.45;109038;1251;109926;-75
2024/04/18 07:07:06;;;;;;;8.30;5.90;;;;;;;9.11;100.00;98820.16;109037;1251;95119;-75
2024/04/18 07:09:43;;;;;;;10.50;5.70;;;;;;;9.05;100.00;98814.83;108862;1252;107620;-75
2024/04/18 07:12:43;;;;;;;9.40;6.10;;;;;;;8.99;100.00;98824.17;108898;1253;94990;-75
2024/04/18 07:15:43;;;;;;;9.90;6.00;;;;;;;8.96;100.00;98829.00;108413;1251;94975;-75
2024/04/18 07:18:54;;;;;;;9.60;5.80;;;;;;;9.00;100.00;98835.52;108733;1254;109937;-76
2024/04/18 07:21:48;;;;;;;10.60;5.80;;;;;;;9.01;100.00;98837.98;109052;1251;100261;-75
2024/04/18 07:24:44;;;;;;;9.30;6.10;;;;;;;8.99;100.00;98839.00;109023;1251;106487;-76
2024/04/18 07:27:25;;;;;;;7.60;5.30;;;;;;;8.96;100.00;98836.52;109022;1251;95449;-75
2024/04/18 07:30:51;;;;;;;7.40;4.80;;;;;;;8.94;100.00;98830.02;108989;1254;94932;-75
2024/04/18 07:33:43;;;;;;;7.60;4.30;;;;;;;8.92;100.00;98831.75;109027;1251;109942;-75
2024/04/18 07:36:39;;;;;;;7.20;4.40;;;;;;;8.85;100.00;98845.59;108993;1251;95491;-75
2024/04/18 07:39:13;;;;;;;7.10;5.30;;;;;;;8.81;100.00;98873.95;109058;1251;106513;-76
2024/04/18 07:41:50;;;;;;;7.90;4.90;;;;;;;8.84;100.00;98891.77;109039;1250;94908;-74
2024/04/18 07:49:10;;;;;;;5.70;3.80;;;;;;;8.90;100.00;98896.40;108524;1257;109839;-76
2024/04/18 08:01:44;;;;;;;4.30;3.40;;;;;;;9.12;100.00;98847.75;104971;1298;637407;-73
2024/04/18 08:04:24;;;;;;;4.50;3.10;;;;;;;9.13;100.00;98844.61;108109;1264;92185;-73
2024/04/18 08:07:15;;;;;;;5.00;3.70;;;;;;;9.12;100.00;98847.73;108171;1264;92292;-74
2024/04/18 08:10:07;;;;;;;5.50;3.10;;;;;;;9.16;100.00;98855.65;108492;1257;107095;-73
2024/04/18 08:12:59;;;;;;;4.40;3.40;;;;;;;9.19;100.00;98853.59;108232;1260;100631;-73
2024/04/18 08:15:51;;;;;;;7.00;3.40;;;;;;;9.20;100.00;98850.48;103896;1257;5443839;-74
2024/04/18 08:18:35;;;;;;;5.10;3.50;;;;;;;9.25;100.00;98844.96;108161;1257;93129;-74
2024/04/18 08:21:12;;;;;;;4.00;3.20;;;;;;;9.22;100.00;98849.63;108136;1257;107292;-73
2024/04/18 08:23:57;;;;;;;5.20;3.30;;;;;;;9.18;100.00;98849.40;108288;1251;97231;-74
2024/04/18 08:27:15;;;;;;;4.70;3.50;;;;;;;9.21;100.00;98861.32;108380;1251;106355;-73
2024/04/18 08:30:15;;;;;;;5.80;4.20;;;;;;;9.25;100.00;98862.05;108272;1255;95115;-74
2024/04/18 08:33:08;;;;;;;5.00;3.60;;;;;;;9.29;100.00;98872.77;108598;1251;93924;-73
2024/04/18 08:35:43;;;;;;;4.40;3.50;;;;;;;9.30;100.00;98877.14;108761;1254;109903;-74
2024/04/18 08:38:21;;;;;;;4.40;3.60;;;;;;;9.33;100.00;98885.39;108661;1252;94414;-73
2024/04/18 08:40:58;;;;;;;;;;;;;;;9.38;100.00;98883.18;108602;1252;106425;-73
2024/04/18 08:43:42;;;;;;;6.10;3.60;;;;;;;9.40;100.00;98879.20;108773;1251;94237;-73
2024/04/18 08:46:19;;;;;;;6.70;3.60;;;;;;;9.39;100.00;98882.67;108954;1251;95678;-73
2024/04/18 08:49:11;;;;;;;5.10;3.60;;;;;;;9.41;100.00;98880.29;108925;1251;108480;-75
2024/04/18 08:52:06;;;;;;;5.30;3.60;;;;;;;9.43;100.00;98861.62;108799;1251;94297;-73
2024/04/18 08:55:16;;;;;;;5.60;3.70;;;;;;;9.46;100.00;98846.81;108831;1254;106363;-73
2024/04/18 08:58:05;;;;;;;4.00;3.50;;;;;;;9.58;100.00;98833.89;108904;1254;93493;-73
2024/04/18 09:01:01;;;;;;;4.40;3.50;;;;;;;9.71;100.00;98830.57;108907;1254;93600;-73
2024/04/18 09:03:57;;;;;;;4.90;4.00;;;;;;;9.86;100.00;98819.74;108920;1251;108062;-73
2024/04/18 09:06:48;;;;;;;4.10;3.60;;;;;;;10.01;100.00;98820.26;108938;1253;94037;-73
2024/04/18 09:09:41;;;;;;;3.60;3.30;;;;;;;10.11;100.00;98824.20;108883;1252;106233;-73
2024/04/18 09:12:33;;;;;;;6.50;3.60;;;;;;;10.11;100.00;98847.09;108847;1253;93693;-73
2024/04/18 09:15:26;;;;;;;5.10;4.00;;;;;;;10.02;100.00;98863.06;108879;1253;93557;-73
2024/04/18 09:18:10;;;;;;;5.00;3.80;;;;;;;10.04;100.00;98862.55;108851;1253;108467;-73
2024/04/18 09:21:02;;;;;;;4.80;3.70;;;;;;;10.07;100.00;98871.52;108862;1254;95480;-74
2024/04/18 09:23:53;;;;;;;4.90;3.50;;;;;;;10.07;100.00;98873.61;108884;1253;106386;-74
2024/04/18 09:26:44;;;;;;;3.60;3.10;;;;;;;9.97;100.00;98866.49;108951;1252;94149;-74
2024/04/18 09:29:36;;;;;;;3.80;3.40;;;;;;;9.87;100.00;98859.39;108943;1254;93506;-74
2024/04/18 09:32:30;;;;;;;4.20;3.20;;;;;;;9.87;100.00;98866.20;108908;1253;108772;-74
2024/04/18 09:35:22;;;;;;;5.70;3.60;;;;;;;9.90;100.00;98878.30;108731;1253;99271;-74
2024/04/18 09:38:14;;;;;;;6.40;4.00;;;;;;;10.01;100.00;98875.63;108445;1251;106428;-74
2024/04/18 09:41:12;;;;;;;5.20;4.10;;;;;;;10.07;100.00;98875.00;108544;1253;94979;-74
2024/04/18 09:44:15;;;;;;;4.00;3.50;;;;;;;10.00;100.00;98879.64;108410;1250;95255;-74
2024/04/18 09:47:08;;;;;;;6.10;4.10;;;;;;;9.96;100.00;98874.52;108951;1253;108599;-74
2024/04/18 09:50:00;;;;;;;7.70;4.40;;;;;;;10.07;100.00;98877.27;108654;1250;94734;-74
2024/04/18 09:52:57;;;;;;;5.40;3.80;;;;;;;10.18;100.00;98869.70;108912;1252;105368;-73
2024/04/18 09:55:49;;;;;;;6.30;4.20;;;;;;;10.27;100.00;98858.80;108553;1253;94077;-75
2024/04/18 09:58:27;;;;;;;3.90;3.40;;;;;;;10.35;100.00;98859.27;108256;1253;95403;-74
2024/04/18 10:01:19;;;;;;;5.10;3.70;;;;;;;10.32;100.00;98854.84;108898;1253;108512;-74
2024/04/18 10:04:10;;;;;;;6.00;3.20;;;;;;;10.34;100.00;98852.25;108937;1252;94202;-74
2024/04/18 10:07:02;;;;;;;3.40;3.10;;;;;;;10.34;100.00;98849.47;108930;1252;106612;-74
2024/04/18 10:09:48;;;;;;;4.10;3.30;;;;;;;10.35;100.00;98854.90;108908;1252;93506;-74
2024/04/18 10:12:42;;;;;;;5.40;3.50;;;;;;;10.44;100.00;98853.77;108811;1253;93655;-75
2024/04/18 10:15:36;;;;;;;6.20;3.60;;;;;;;10.57;100.00;98858.07;108554;1253;109353;-74
2024/04/18 10:18:39;;;;;;;5.10;3.30;;;;;;;10.70;100.00;98863.97;108893;1252;95660;-75
2024/04/18 10:21:30;;;;;;;3.90;2.90;;;;;;;10.78;100.00;98866.31;108909;1251;106434;-76
2024/04/18 10:24:22;;;;;;;3.60;2.80;;;;;;;10.86;100.00;98857.98;108960;1251;93537;-75
2024/04/18 10:27:15;;;;;;;3.10;2.80;;;;;;;10.88;100.00;98854.67;108905;1251;93531;-75
2024/04/18 10:30:14;;;;;;;3.80;3.10;;;;;;;10.98;100.00;98853.52;108893;1253;108656;-75
2024/04/18 10:33:07;;;;;;;5.60;3.40;;;;;;;11.11;100.00;98854.68;108894;1253;94221;-75
2024/04/18 10:35:59;;;;;;;3.80;3.00;;;;;;;11.14;100.00;98850.86;108720;1251;106352;-75
2024/04/18 10:38:50;;;;;;;4.20;2.70;;;;;;;11.20;100.00;98846.69;108729;1251;94021;-75
2024/04/18 10:41:27;;;;;;;3.10;2.70;;;;;;;11.32;100.00;98849.39;108904;1252;93577;-74
2024/04/18 10:44:24;;;;;;;3.90;3.20;;;;;;;11.40;100.00;98850.83;108422;1251;109069;-76
2024/04/18 10:47:21;;;;;;;2.70;2.40;;;;;;;11.42;100.00;98855.05;108289;1254;100196;-75
2024/04/18 10:50:15;;;;;;;3.10;2.70;;;;;;;11.37;100.00;98857.81;108515;1252;107795;-75
2024/04/18 10:53:03;;;;;;;3.60;2.90;;;;;;;11.26;100.00;98856.01;108935;1252;93530;-75
2024/04/18 10:55:54;;;;;;;3.60;2.70;;;;;;;11.20;100.00;98857.54;108278;1251;94364;-75
2024/04/18 10:58:48;;;;;;;3.30;3.00;;;;;;;11.06;100.00;98851.84;108296;1250;109169;-76
2024/04/18 11:01:41;;;;;;;8.20;4.70;;;;;;;10.98;100.00;98853.19;108326;1253;95631;-75
2024/04/18 11:04:33;;;;;;;4.70;3.50;;;;;;;10.92;100.00;98850.52;108256;1254;107098;-77
2024/04/18 11:07:26;;;;;;;5.50;3.10;;;;;;;10.93;100.00;98853.15;108809;1252;94185;-74
2024/04/18 11:10:47;;;;;;;3.10;2.80;;;;;;;11.00;100.00;98852.50;108173;1261;94285;-75
2024/04/18 11:13:44;;;;;;;4.10;2.80;;;;;;;11.09;100.00;98857.46;108214;1251;108588;-75
2024/04/18 11:16:35;;;;;;;3.50;2.60;;;;;;;11.13;100.00;98856.42;108355;1253;95611;-75
2024/04/18 11:19:28;;;;;;;4.10;2.70;;;;;;;11.08;100.00;98853.43;108658;1252;107441;-75
2024/04/18 11:22:29;;;;;;;3.20;2.70;;;;;;;11.03;100.00;98859.69;108944;1252;93527;-74
2024/04/18 11:25:20;;;;;;;4.20;3.00;;;;;;;10.99;100.00;98863.34;108832;1251;93584;-74
2024/04/18 11:28:14;;;;;;;4.80;2.70;;;;;;;11.03;100.00;98863.02;108940;1250;114775;-74
2024/04/18 11:31:08;;;;;;;2.70;2.50;;;;;;;11.10;100.00;98860.44;109077;1250;94200;-75
2024/04/18 11:33:59;;;;;;;5.20;3.10;;;;;;;11.13;100.00;98859.94;109058;1250;106510;-74
2024/04/18 11:36:41;;;;;;;4.20;2.70;;;;;;;11.01;100.00;98846.20;108971;1251;93617;-75
2024/04/18 11:39:47;;;;;;;3.50;2.70;;;;;;;10.92;100.00;98850.86;109089;1250;93524;-74
2024/04/18 11:42:41;;;;;;;3.50;2.50;;;;;;;10.78;100.00;98857.21;108964;1250;109833;-74
2024/04/18 11:45:32;;;;;;;2.80;2.40;;;;;;;10.74;100.00;98859.11;109054;1250;94515;-75
2024/04/18 11:52:38;;;;;;;2.80;2.60;;;;;;;10.91;100.00;98856.63;108471;1252;95548;-75
2024/04/18 11:55:32;;;;;;;3.10;2.70;;;;;;;11.18;100.00;98857.17;108965;1252;93615;-75
2024/04/18 11:58:23;;;;;;;3.20;2.50;;;;;;;11.39;100.00;98861.52;108883;1252;108790;-74
2024/04/18 12:01:06;;;;;;;3.20;2.60;;;;;;;11.50;100.00;98860.34;108950;1252;94242;-74
2024/04/18 12:04:04;;;;;;;2.80;2.20;;;;;;;11.69;100.00;98863.77;108757;1253;113086;-75
2024/04/18 12:06:55;;;;;;;2.80;2.20;;;;;;;11.84;100.00;98859.11;108966;1253;93526;-76
2024/04/18 12:09:54;;;;;;;2.50;2.30;;;;;;;11.98;100.00;98857.98;108924;1252;93563;-75
2024/04/18 12:12:47;;;;;;;3.60;2.60;;;;;;;11.95;100.00;98857.45;109028;1253;108573;-75
2024/04/18 12:15:57;;;;;;;3.40;2.50;;;;;;;11.88;100.00;98856.33;109002;1250;94246;-76
2024/04/18 12:18:55;;;;;;;5.60;2.10;;;;;;;11.73;100.00;98856.08;108973;1250;105220;-75
2024/04/18 12:21:49;;;;;;;3.00;2.30;;;;;;;11.51;100.00;98858.95;109019;1250;93624;-75
2024/04/18 12:24:42;;;;;;;2.60;2.10;;;;;;;11.42;100.00;98855.05;108967;1252;93526;-75
2024/04/18 12:27:33;;;;;;;2.10;1.80;;;;;;;11.31;100.00;98862.33;108936;1252;108718;-75
2024/04/18 12:30:24;;;;;;;4.10;2.00;;;;;;;11.19;100.00;98864.53;108872;1252;94186;-75
2024/04/18 12:33:16;;;;;;;2.20;1.90;;;;;;;11.16;100.00;98871.69;108467;1250;108794;-76
2024/04/18 12:36:13;;;;;;;3.00;2.30;;;;;;;11.23;100.00;98870.85;108766;1250;95038;-76
2024/04/18 12:39:08;;;;;;;4.40;2.30;;;;;;;11.36;100.00;98873.23;108968;1251;93647;-75
2024/04/18 12:41:52;;;;;;;2.90;2.60;;;;;;;11.51;100.00;98870.88;108952;1252;108442;-75
2024/04/18 12:44:43;;;;;;;3.30;2.60;;;;;;;11.69;100.00;98875.33;108942;1252;95867;-76
2024/04/18 12:47:34;;;;;;;2.40;2.20;;;;;;;11.80;100.00;98875.04;108915;1252;106302;-76
2024/04/18 12:50:22;;;;;;;3.00;2.50;;;;;;;11.79;100.00;98868.20;108782;1251;95453;-76
2024/04/18 12:53:13;;;;;;;2.20;2.00;;;;;;;11.80;100.00;98870.48;108818;1250;94869;-74
2024/04/18 12:56:04;;;;;;;2.00;1.60;;;;;;;11.73;100.00;98875.02;109035;1250;110591;-76
2024/04/18 13:03:20;;;;;;;2.30;2.10;;;;;;;11.71;100.00;98877.27;108547;1251;106208;-75
2024/04/18 13:06:11;;;;;;;2.70;2.00;;;;;;;11.71;100.00;98871.48;108692;1252;94962;-76
2024/04/18 13:09:04;;;;;;;2.80;2.40;;;;;;;11.66;100.00;98875.16;108945;1251;94870;-75
2024/04/18 13:12:08;;;;;;;4.50;2.10;;;;;;;11.47;100.00;98871.20;108808;1253;110008;-76
2024/04/18 13:14:57;;;;;;;2.90;2.40;;;;;;;11.34;100.00;98868.48;108945;1250;95623;-76
2024/04/18 13:18:06;;;;;;;2.50;2.10;;;;;;;11.23;100.00;98869.98;108886;1253;105596;-75
2024/04/18 13:20:57;;;;;;;2.80;2.50;;;;;;;11.06;100.00;98872.14;108849;1252;95060;-76
2024/04/18 13:23:36;;;;;;;5.60;2.50;;;;;;;11.02;100.00;98878.41;108946;1253;94915;-75
2024/04/18 13:26:27;;;;;;;4.80;2.70;;;;;;;11.02;100.00;98876.84;108940;1253;115248;-74
2024/04/18 13:29:19;;;;;;;4.10;2.50;;;;;;;11.00;100.00;98876.82;108671;1252;95414;-76
2024/04/18 13:32:10;;;;;;;3.70;2.50;;;;;;;10.89;100.00;98876.55;108978;1252;107855;-75
2024/04/18 13:35:19;;;;;;;3.10;2.30;;;;;;;10.87;100.00;98874.97;108190;1257;95093;-74